sensor_id;sensor_type;location;lat;lon;timestamp;P1;durP1;ratioP1;P2;durP2;ratioP2
2446;SDS011;26430;48.818;9.244;2022-08-21T00:01:23;4.77;;;0.80;;
2446;SDS011;26430;48.818;9.244;2022-08-21T00:03:50;4.78;;;0.90;;
2446;SDS011;26430;48.818;9.244;2022-08-21T00:06:16;4.80;;;0.90;;
2446;SDS011;26430;48.818;9.244;2022-08-21T00:08:42;4.85;;;1.00;;
2446;SDS011;26430;48.818;9.244;2022-08-21T00:11:08;4.83;;;1.00;;
2446;SDS011;26430;48.818;9.244;2022-08-21T00:13:34;4.80;;;0.90;;
2446;SDS011;26430;48.818;9.244;2022-08-21T00:16:00;4.80;;;0.85;;
2446;SDS011;26430;48.818;9.244;2022-08-21T00:18:26;4.80;;;0.90;;
2446;SDS011;26430;48.818;9.244;2022-08-21T00:20:53;4.78;;;0.80;;
2446;SDS011;26430;48.818;9.244;2022-08-21T00:23:19;4.82;;;1.00;;
2446;SDS011;26430;48.818;9.244;2022-08-21T00:25:45;4.80;;;0.90;;
2446;SDS011;26430;48.818;9.244;2022-08-21T00:28:11;4.80;;;0.90;;
2446;SDS011;26430;48.818;9.244;2022-08-21T00:30:37;4.75;;;0.85;;
2446;SDS011;26430;48.818;9.244;2022-08-21T00:33:04;4.70;;;0.90;;
2446;SDS011;26430;48.818;9.244;2022-08-21T00:35:32;4.80;;;0.90;;
2446;SDS011;26430;48.818;9.244;2022-08-21T00:38:03;4.75;;;0.93;;
2446;SDS011;26430;48.818;9.244;2022-08-21T00:40:32;4.75;;;0.90;;
2446;SDS011;26430;48.818;9.244;2022-08-21T00:43:08;4.78;;;0.90;;
2446;SDS011;26430;48.818;9.244;2022-08-21T00:45:35;4.75;;;0.90;;
2446;SDS011;26430;48.818;9.244;2022-08-21T00:48:01;4.73;;;0.90;;
2446;SDS011;26430;48.818;9.244;2022-08-21T00:50:28;4.80;;;1.00;;
2446;SDS011;26430;48.818;9.244;2022-08-21T00:52:58;4.75;;;0.80;;
2446;SDS011;26430;48.818;9.244;2022-08-21T00:55:24;4.80;;;1.00;;
2446;SDS011;26430;48.818;9.244;2022-08-21T00:57:52;4.80;;;0.90;;
2446;SDS011;26430;48.818;9.244;2022-08-21T01:00:23;4.75;;;0.90;;
2446;SDS011;26430;48.818;9.244;2022-08-21T01:02:52;4.80;;;0.90;;
2446;SDS011;26430;48.818;9.244;2022-08-21T01:05:18;4.80;;;0.90;;
2446;SDS011;26430;48.818;9.244;2022-08-21T01:07:44;5.00;;;0.97;;
2446;SDS011;26430;48.818;9.244;2022-08-21T01:10:10;4.80;;;0.90;;
2446;SDS011;26430;48.818;9.244;2022-08-21T01:12:36;4.88;;;0.93;;
2446;SDS011;26430;48.818;9.244;2022-08-21T01:15:03;4.80;;;0.90;;
2446;SDS011;26430;48.818;9.244;2022-08-21T01:17:30;4.80;;;0.88;;
2446;SDS011;26430;48.818;9.244;2022-08-21T01:19:57;4.82;;;0.80;;
2446;SDS011;26430;48.818;9.244;2022-08-21T01:22:23;4.80;;;0.80;;
2446;SDS011;26430;48.818;9.244;2022-08-21T01:24:49;4.80;;;0.90;;
2446;SDS011;26430;48.818;9.244;2022-08-21T01:27:15;4.80;;;0.90;;
2446;SDS011;26430;48.818;9.244;2022-08-21T01:32:23;4.85;;;0.90;;
2446;SDS011;26430;48.818;9.244;2022-08-21T01:34:49;4.82;;;0.90;;
2446;SDS011;26430;48.818;9.244;2022-08-21T01:37:16;4.80;;;0.90;;
2446;SDS011;26430;48.818;9.244;2022-08-21T01:39:44;4.80;;;0.88;;
2446;SDS011;26430;48.818;9.244;2022-08-21T01:42:10;4.80;;;0.80;;
2446;SDS011;26430;48.818;9.244;2022-08-21T01:44:36;4.82;;;1.00;;
2446;SDS011;26430;48.818;9.244;2022-08-21T01:47:04;4.77;;;0.90;;
2446;SDS011;26430;48.818;9.244;2022-08-21T01:49:35;4.82;;;0.80;;
2446;SDS011;26430;48.818;9.244;2022-08-21T01:52:02;4.80;;;0.90;;
2446;SDS011;26430;48.818;9.244;2022-08-21T01:54:29;4.80;;;0.90;;
2446;SDS011;26430;48.818;9.244;2022-08-21T01:56:55;4.80;;;0.90;;
2446;SDS011;26430;48.818;9.244;2022-08-21T01:59:23;4.82;;;0.90;;
2446;SDS011;26430;48.818;9.244;2022-08-21T02:01:51;4.82;;;0.90;;
2446;SDS011;26430;48.818;9.244;2022-08-21T02:04:19;4.82;;;0.90;;
2446;SDS011;26430;48.818;9.244;2022-08-21T02:06:44;4.83;;;0.97;;
2446;SDS011;26430;48.818;9.244;2022-08-21T02:09:10;4.87;;;0.90;;
2446;SDS011;26430;48.818;9.244;2022-08-21T02:11:37;4.85;;;0.90;;
2446;SDS011;26430;48.818;9.244;2022-08-21T02:14:06;4.90;;;0.90;;
2446;SDS011;26430;48.818;9.244;2022-08-21T02:16:33;4.90;;;0.90;;
2446;SDS011;26430;48.818;9.244;2022-08-21T02:18:59;4.85;;;0.80;;
2446;SDS011;26430;48.818;9.244;2022-08-21T02:21:25;4.83;;;0.90;;
2446;SDS011;26430;48.818;9.244;2022-08-21T02:23:50;4.80;;;0.80;;
2446;SDS011;26430;48.818;9.244;2022-08-21T02:26:16;4.83;;;0.90;;
2446;SDS011;26430;48.818;9.244;2022-08-21T02:28:42;4.83;;;0.90;;
2446;SDS011;26430;48.818;9.244;2022-08-21T02:31:08;4.80;;;0.90;;
2446;SDS011;26430;48.818;9.244;2022-08-21T02:33:34;4.85;;;1.00;;
2446;SDS011;26430;48.818;9.244;2022-08-21T02:36:00;4.80;;;0.90;;
2446;SDS011;26430;48.818;9.244;2022-08-21T02:38:27;4.80;;;0.90;;
2446;SDS011;26430;48.818;9.244;2022-08-21T02:40:55;4.88;;;0.98;;
2446;SDS011;26430;48.818;9.244;2022-08-21T02:43:23;4.85;;;0.90;;
2446;SDS011;26430;48.818;9.244;2022-08-21T02:45:51;4.85;;;0.90;;
2446;SDS011;26430;48.818;9.244;2022-08-21T02:48:19;4.88;;;0.93;;
2446;SDS011;26430;48.818;9.244;2022-08-21T02:50:50;5.20;;;2.00;;
2446;SDS011;26430;48.818;9.244;2022-08-21T02:53:18;4.85;;;0.90;;
2446;SDS011;26430;48.818;9.244;2022-08-21T02:55:45;4.80;;;0.85;;
2446;SDS011;26430;48.818;9.244;2022-08-21T02:58:13;4.85;;;0.90;;
2446;SDS011;26430;48.818;9.244;2022-08-21T03:00:40;4.82;;;0.88;;
2446;SDS011;26430;48.818;9.244;2022-08-21T03:03:07;4.80;;;0.90;;
2446;SDS011;26430;48.818;9.244;2022-08-21T03:05:33;4.90;;;1.00;;
2446;SDS011;26430;48.818;9.244;2022-08-21T03:08:02;4.82;;;0.90;;
2446;SDS011;26430;48.818;9.244;2022-08-21T03:10:34;4.80;;;0.80;;
2446;SDS011;26430;48.818;9.244;2022-08-21T03:13:00;4.82;;;1.00;;
2446;SDS011;26430;48.818;9.244;2022-08-21T03:15:27;4.85;;;0.90;;
2446;SDS011;26430;48.818;9.244;2022-08-21T03:17:53;4.90;;;1.00;;
2446;SDS011;26430;48.818;9.244;2022-08-21T03:20:20;4.90;;;0.90;;
2446;SDS011;26430;48.818;9.244;2022-08-21T03:22:48;4.85;;;0.80;;
2446;SDS011;26430;48.818;9.244;2022-08-21T03:25:15;4.85;;;0.90;;
2446;SDS011;26430;48.818;9.244;2022-08-21T03:27:40;4.83;;;0.90;;
2446;SDS011;26430;48.818;9.244;2022-08-21T03:30:07;4.83;;;0.90;;
2446;SDS011;26430;48.818;9.244;2022-08-21T03:32:33;4.90;;;1.00;;
2446;SDS011;26430;48.818;9.244;2022-08-21T03:35:00;4.85;;;0.90;;
2446;SDS011;26430;48.818;9.244;2022-08-21T03:37:26;4.88;;;0.90;;
2446;SDS011;26430;48.818;9.244;2022-08-21T03:39:52;4.82;;;0.90;;
2446;SDS011;26430;48.818;9.244;2022-08-21T03:42:18;4.87;;;0.90;;
2446;SDS011;26430;48.818;9.244;2022-08-21T03:44:44;4.80;;;0.80;;
2446;SDS011;26430;48.818;9.244;2022-08-21T03:47:10;4.87;;;0.90;;
2446;SDS011;26430;48.818;9.244;2022-08-21T03:49:35;4.90;;;0.90;;
2446;SDS011;26430;48.818;9.244;2022-08-21T03:52:01;5.50;;;2.17;;
2446;SDS011;26430;48.818;9.244;2022-08-21T03:54:27;4.85;;;0.85;;
2446;SDS011;26430;48.818;9.244;2022-08-21T03:56:53;4.83;;;0.90;;
2446;SDS011;26430;48.818;9.244;2022-08-21T03:59:19;4.83;;;0.90;;
2446;SDS011;26430;48.818;9.244;2022-08-21T04:01:55;4.90;;;0.90;;
2446;SDS011;26430;48.818;9.244;2022-08-21T04:04:22;4.82;;;0.80;;
2446;SDS011;26430;48.818;9.244;2022-08-21T04:06:48;4.90;;;0.90;;
2446;SDS011;26430;48.818;9.244;2022-08-21T04:09:14;4.82;;;0.90;;
2446;SDS011;26430;48.818;9.244;2022-08-21T04:11:41;4.90;;;1.00;;
2446;SDS011;26430;48.818;9.244;2022-08-21T04:14:06;4.80;;;0.80;;
2446;SDS011;26430;48.818;9.244;2022-08-21T04:16:32;5.00;;;1.43;;
2446;SDS011;26430;48.818;9.244;2022-08-21T04:18:58;4.83;;;0.90;;
2446;SDS011;26430;48.818;9.244;2022-08-21T04:21:23;4.80;;;0.90;;
2446;SDS011;26430;48.818;9.244;2022-08-21T04:23:49;4.80;;;0.90;;
2446;SDS011;26430;48.818;9.244;2022-08-21T04:26:15;4.88;;;0.93;;
2446;SDS011;26430;48.818;9.244;2022-08-21T04:28:41;4.80;;;0.80;;
2446;SDS011;26430;48.818;9.244;2022-08-21T04:31:07;4.80;;;0.90;;
2446;SDS011;26430;48.818;9.244;2022-08-21T04:33:34;4.85;;;0.90;;
2446;SDS011;26430;48.818;9.244;2022-08-21T04:36:00;4.88;;;0.90;;
2446;SDS011;26430;48.818;9.244;2022-08-21T04:38:26;4.90;;;0.90;;
2446;SDS011;26430;48.818;9.244;2022-08-21T04:40:52;4.90;;;1.00;;
2446;SDS011;26430;48.818;9.244;2022-08-21T04:43:19;4.88;;;0.90;;
2446;SDS011;26430;48.818;9.244;2022-08-21T04:45:47;4.85;;;0.90;;
2446;SDS011;26430;48.818;9.244;2022-08-21T04:48:15;4.85;;;0.90;;
2446;SDS011;26430;48.818;9.244;2022-08-21T04:53:38;4.88;;;0.90;;
2446;SDS011;26430;48.818;9.244;2022-08-21T04:56:09;4.85;;;0.90;;
2446;SDS011;26430;48.818;9.244;2022-08-21T04:58:44;4.85;;;0.90;;
2446;SDS011;26430;48.818;9.244;2022-08-21T05:01:11;4.80;;;0.97;;
2446;SDS011;26430;48.818;9.244;2022-08-21T05:03:41;4.88;;;0.90;;
2446;SDS011;26430;48.818;9.244;2022-08-21T05:06:09;4.90;;;0.95;;
2446;SDS011;26430;48.818;9.244;2022-08-21T05:08:37;4.88;;;0.93;;
2446;SDS011;26430;48.818;9.244;2022-08-21T05:11:04;4.85;;;0.90;;
2446;SDS011;26430;48.818;9.244;2022-08-21T05:13:30;4.85;;;0.90;;
2446;SDS011;26430;48.818;9.244;2022-08-21T05:15:56;4.80;;;0.90;;
2446;SDS011;26430;48.818;9.244;2022-08-21T05:18:23;4.85;;;0.90;;
2446;SDS011;26430;48.818;9.244;2022-08-21T05:20:49;4.82;;;0.90;;
2446;SDS011;26430;48.818;9.244;2022-08-21T05:23:15;4.85;;;0.80;;
2446;SDS011;26430;48.818;9.244;2022-08-21T05:25:41;4.80;;;0.90;;
2446;SDS011;26430;48.818;9.244;2022-08-21T05:28:08;4.85;;;1.00;;
2446;SDS011;26430;48.818;9.244;2022-08-21T05:30:34;4.80;;;0.90;;
2446;SDS011;26430;48.818;9.244;2022-08-21T05:33:01;4.80;;;0.90;;
2446;SDS011;26430;48.818;9.244;2022-08-21T05:35:29;4.80;;;0.90;;
2446;SDS011;26430;48.818;9.244;2022-08-21T05:37:56;4.82;;;0.95;;
2446;SDS011;26430;48.818;9.244;2022-08-21T05:40:22;4.85;;;0.93;;
2446;SDS011;26430;48.818;9.244;2022-08-21T05:42:52;4.80;;;0.90;;
2446;SDS011;26430;48.818;9.244;2022-08-21T05:45:19;4.80;;;0.90;;
2446;SDS011;26430;48.818;9.244;2022-08-21T05:47:45;4.80;;;1.00;;
2446;SDS011;26430;48.818;9.244;2022-08-21T05:50:11;4.90;;;1.00;;
2446;SDS011;26430;48.818;9.244;2022-08-21T05:52:37;4.80;;;0.90;;
2446;SDS011;26430;48.818;9.244;2022-08-21T05:55:03;4.80;;;0.90;;
2446;SDS011;26430;48.818;9.244;2022-08-21T05:57:29;4.80;;;0.90;;
2446;SDS011;26430;48.818;9.244;2022-08-21T05:59:54;4.80;;;0.90;;
2446;SDS011;26430;48.818;9.244;2022-08-21T06:02:20;4.80;;;0.90;;
2446;SDS011;26430;48.818;9.244;2022-08-21T06:04:46;4.78;;;0.80;;
2446;SDS011;26430;48.818;9.244;2022-08-21T06:07:12;4.80;;;0.80;;
2446;SDS011;26430;48.818;9.244;2022-08-21T06:09:38;4.80;;;1.00;;
2446;SDS011;26430;48.818;9.244;2022-08-21T06:12:04;4.80;;;0.90;;
2446;SDS011;26430;48.818;9.244;2022-08-21T06:14:31;4.80;;;0.90;;
2446;SDS011;26430;48.818;9.244;2022-08-21T06:17:03;4.80;;;0.90;;
2446;SDS011;26430;48.818;9.244;2022-08-21T06:19:31;4.82;;;0.93;;
2446;SDS011;26430;48.818;9.244;2022-08-21T06:21:57;4.80;;;0.90;;
2446;SDS011;26430;48.818;9.244;2022-08-21T06:24:23;4.80;;;0.93;;
2446;SDS011;26430;48.818;9.244;2022-08-21T06:26:49;4.80;;;0.90;;
2446;SDS011;26430;48.818;9.244;2022-08-21T06:29:15;4.80;;;0.90;;
2446;SDS011;26430;48.818;9.244;2022-08-21T06:31:45;4.78;;;0.90;;
2446;SDS011;26430;48.818;9.244;2022-08-21T06:34:11;4.80;;;0.80;;
2446;SDS011;26430;48.818;9.244;2022-08-21T06:36:38;4.75;;;0.80;;
2446;SDS011;26430;48.818;9.244;2022-08-21T06:39:03;4.73;;;0.90;;
2446;SDS011;26430;48.818;9.244;2022-08-21T06:41:29;4.80;;;0.90;;
2446;SDS011;26430;48.818;9.244;2022-08-21T06:43:56;4.80;;;0.90;;
2446;SDS011;26430;48.818;9.244;2022-08-21T06:46:25;4.80;;;0.90;;
2446;SDS011;26430;48.818;9.244;2022-08-21T06:48:53;4.80;;;0.80;;
2446;SDS011;26430;48.818;9.244;2022-08-21T06:51:19;4.80;;;1.00;;
2446;SDS011;26430;48.818;9.244;2022-08-21T06:53:45;4.78;;;0.80;;
2446;SDS011;26430;48.818;9.244;2022-08-21T06:56:11;4.70;;;0.87;;
2446;SDS011;26430;48.818;9.244;2022-08-21T06:58:37;4.75;;;0.90;;
2446;SDS011;26430;48.818;9.244;2022-08-21T07:01:04;4.73;;;0.80;;
2446;SDS011;26430;48.818;9.244;2022-08-21T07:03:33;4.75;;;0.80;;
2446;SDS011;26430;48.818;9.244;2022-08-21T07:06:04;4.80;;;0.90;;
2446;SDS011;26430;48.818;9.244;2022-08-21T07:08:31;4.78;;;0.90;;
2446;SDS011;26430;48.818;9.244;2022-08-21T07:10:57;4.80;;;0.90;;
2446;SDS011;26430;48.818;9.244;2022-08-21T07:13:25;4.80;;;0.90;;
2446;SDS011;26430;48.818;9.244;2022-08-21T07:15:51;4.77;;;0.80;;
2446;SDS011;26430;48.818;9.244;2022-08-21T07:18:17;4.77;;;0.90;;
2446;SDS011;26430;48.818;9.244;2022-08-21T07:20:42;4.73;;;0.93;;
2446;SDS011;26430;48.818;9.244;2022-08-21T07:23:09;4.77;;;0.90;;
2446;SDS011;26430;48.818;9.244;2022-08-21T07:25:37;5.10;;;1.30;;
2446;SDS011;26430;48.818;9.244;2022-08-21T07:28:03;4.75;;;0.90;;
2446;SDS011;26430;48.818;9.244;2022-08-21T07:30:30;4.80;;;0.90;;
2446;SDS011;26430;48.818;9.244;2022-08-21T07:32:55;4.80;;;0.90;;
2446;SDS011;26430;48.818;9.244;2022-08-21T07:35:21;4.73;;;0.90;;
2446;SDS011;26430;48.818;9.244;2022-08-21T07:37:48;4.75;;;0.90;;
2446;SDS011;26430;48.818;9.244;2022-08-21T07:40:14;4.70;;;0.90;;
2446;SDS011;26430;48.818;9.244;2022-08-21T07:42:43;4.78;;;0.90;;
2446;SDS011;26430;48.818;9.244;2022-08-21T07:45:11;4.80;;;0.93;;
2446;SDS011;26430;48.818;9.244;2022-08-21T07:47:37;4.80;;;0.90;;
2446;SDS011;26430;48.818;9.244;2022-08-21T07:50:03;4.72;;;0.90;;
2446;SDS011;26430;48.818;9.244;2022-08-21T07:52:30;4.75;;;0.90;;
2446;SDS011;26430;48.818;9.244;2022-08-21T07:54:56;4.77;;;0.90;;
2446;SDS011;26430;48.818;9.244;2022-08-21T07:57:21;4.77;;;0.93;;
2446;SDS011;26430;48.818;9.244;2022-08-21T07:59:47;4.73;;;0.90;;
2446;SDS011;26430;48.818;9.244;2022-08-21T08:02:22;4.73;;;0.90;;
2446;SDS011;26430;48.818;9.244;2022-08-21T08:04:53;4.72;;;0.80;;
2446;SDS011;26430;48.818;9.244;2022-08-21T08:07:19;4.77;;;0.90;;
2446;SDS011;26430;48.818;9.244;2022-08-21T08:09:45;4.70;;;0.90;;
2446;SDS011;26430;48.818;9.244;2022-08-21T08:12:11;4.73;;;0.87;;
2446;SDS011;26430;48.818;9.244;2022-08-21T08:14:37;4.72;;;0.90;;
2446;SDS011;26430;48.818;9.244;2022-08-21T08:17:02;4.73;;;0.83;;
2446;SDS011;26430;48.818;9.244;2022-08-21T08:19:28;4.73;;;0.90;;
2446;SDS011;26430;48.818;9.244;2022-08-21T08:21:55;4.72;;;0.80;;
2446;SDS011;26430;48.818;9.244;2022-08-21T08:24:21;4.73;;;0.90;;
2446;SDS011;26430;48.818;9.244;2022-08-21T08:26:46;4.70;;;0.97;;
2446;SDS011;26430;48.818;9.244;2022-08-21T08:29:12;4.70;;;0.90;;
2446;SDS011;26430;48.818;9.244;2022-08-21T08:31:38;4.73;;;0.90;;
2446;SDS011;26430;48.818;9.244;2022-08-21T08:34:04;4.70;;;0.90;;
2446;SDS011;26430;48.818;9.244;2022-08-21T08:36:33;4.73;;;0.90;;
2446;SDS011;26430;48.818;9.244;2022-08-21T08:39:01;5.70;;;2.17;;
2446;SDS011;26430;48.818;9.244;2022-08-21T08:41:30;4.75;;;0.80;;
2446;SDS011;26430;48.818;9.244;2022-08-21T08:44:06;4.80;;;1.00;;
2446;SDS011;26430;48.818;9.244;2022-08-21T08:52:06;4.70;;;0.90;;
2446;SDS011;26430;48.818;9.244;2022-08-21T08:54:47;4.70;;;0.90;;
2446;SDS011;26430;48.818;9.244;2022-08-21T08:57:20;4.75;;;0.90;;
2446;SDS011;26430;48.818;9.244;2022-08-21T08:59:50;4.75;;;0.88;;
2446;SDS011;26430;48.818;9.244;2022-08-21T09:02:18;4.70;;;0.90;;
2446;SDS011;26430;48.818;9.244;2022-08-21T09:04:47;4.80;;;1.10;;
2446;SDS011;26430;48.818;9.244;2022-08-21T09:12:38;5.00;;;1.80;;
2446;SDS011;26430;48.818;9.244;2022-08-21T09:26:19;4.75;;;0.85;;
2446;SDS011;26430;48.818;9.244;2022-08-21T09:28:55;4.72;;;0.90;;
2446;SDS011;26430;48.818;9.244;2022-08-21T09:31:24;4.70;;;0.90;;
2446;SDS011;26430;48.818;9.244;2022-08-21T09:33:50;4.75;;;0.90;;
2446;SDS011;26430;48.818;9.244;2022-08-21T09:36:24;4.78;;;0.90;;
2446;SDS011;26430;48.818;9.244;2022-08-21T09:38:54;4.70;;;0.90;;
2446;SDS011;26430;48.818;9.244;2022-08-21T09:41:31;4.75;;;0.90;;
2446;SDS011;26430;48.818;9.244;2022-08-21T09:44:00;4.68;;;0.90;;
2446;SDS011;26430;48.818;9.244;2022-08-21T09:46:26;4.75;;;0.90;;
2446;SDS011;26430;48.818;9.244;2022-08-21T09:48:57;4.75;;;0.90;;
2446;SDS011;26430;48.818;9.244;2022-08-21T09:51:26;4.70;;;0.90;;
2446;SDS011;26430;48.818;9.244;2022-08-21T09:56:33;4.70;;;0.88;;
2446;SDS011;26430;48.818;9.244;2022-08-21T09:59:36;4.75;;;0.90;;
2446;SDS011;26430;48.818;9.244;2022-08-21T10:05:07;4.78;;;0.85;;
2446;SDS011;26430;48.818;9.244;2022-08-21T10:07:53;4.72;;;0.90;;
2446;SDS011;26430;48.818;9.244;2022-08-21T10:15:13;4.70;;;0.90;;
2446;SDS011;26430;48.818;9.244;2022-08-21T10:26:25;4.73;;;0.90;;
2446;SDS011;26430;48.818;9.244;2022-08-21T10:42:28;4.63;;;0.90;;
2446;SDS011;26430;48.818;9.244;2022-08-21T10:48:04;4.60;;;0.90;;
2446;SDS011;26430;48.818;9.244;2022-08-21T10:50:48;4.53;;;0.90;;
2446;SDS011;26430;48.818;9.244;2022-08-21T10:56:12;4.60;;;1.00;;
2446;SDS011;26430;48.818;9.244;2022-08-21T10:58:45;4.50;;;0.90;;
2446;SDS011;26430;48.818;9.244;2022-08-21T11:01:39;4.60;;;1.00;;
2446;SDS011;26430;48.818;9.244;2022-08-21T11:04:19;4.57;;;0.90;;
2446;SDS011;26430;48.818;9.244;2022-08-21T11:06:58;4.60;;;0.90;;
2446;SDS011;26430;48.818;9.244;2022-08-21T11:09:28;4.50;;;0.90;;
2446;SDS011;26430;48.818;9.244;2022-08-21T11:12:06;4.50;;;0.90;;
2446;SDS011;26430;48.818;9.244;2022-08-21T11:14:47;4.50;;;0.97;;
2446;SDS011;26430;48.818;9.244;2022-08-21T11:17:31;4.53;;;0.90;;
2446;SDS011;26430;48.818;9.244;2022-08-21T11:20:12;4.50;;;0.90;;
2446;SDS011;26430;48.818;9.244;2022-08-21T11:22:57;4.60;;;1.10;;
2446;SDS011;26430;48.818;9.244;2022-08-21T11:25:40;4.57;;;0.90;;
2446;SDS011;26430;48.818;9.244;2022-08-21T11:28:21;4.60;;;0.90;;
2446;SDS011;26430;48.818;9.244;2022-08-21T11:33:56;4.63;;;1.20;;
2446;SDS011;26430;48.818;9.244;2022-08-21T11:44:59;4.60;;;0.90;;
2446;SDS011;26430;48.818;9.244;2022-08-21T11:47:32;4.60;;;0.90;;
2446;SDS011;26430;48.818;9.244;2022-08-21T11:50:23;4.60;;;0.90;;
2446;SDS011;26430;48.818;9.244;2022-08-21T11:55:46;4.63;;;0.90;;
2446;SDS011;26430;48.818;9.244;2022-08-21T12:05:54;4.60;;;0.90;;
2446;SDS011;26430;48.818;9.244;2022-08-21T12:08:27;4.60;;;0.90;;
2446;SDS011;26430;48.818;9.244;2022-08-21T12:16:33;4.67;;;0.90;;
2446;SDS011;26430;48.818;9.244;2022-08-21T12:21:53;4.60;;;0.90;;
2446;SDS011;26430;48.818;9.244;2022-08-21T12:24:42;4.70;;;0.90;;
2446;SDS011;26430;48.818;9.244;2022-08-21T12:29:44;4.63;;;0.90;;
2446;SDS011;26430;48.818;9.244;2022-08-21T12:34:42;4.70;;;1.00;;
2446;SDS011;26430;48.818;9.244;2022-08-21T12:37:22;4.63;;;1.00;;
2446;SDS011;26430;48.818;9.244;2022-08-21T12:40:04;4.57;;;0.90;;
2446;SDS011;26430;48.818;9.244;2022-08-21T12:42:55;4.60;;;0.90;;
2446;SDS011;26430;48.818;9.244;2022-08-21T12:50:48;4.57;;;0.90;;
2446;SDS011;26430;48.818;9.244;2022-08-21T12:55:48;4.60;;;0.90;;
2446;SDS011;26430;48.818;9.244;2022-08-21T12:58:18;4.60;;;0.90;;
2446;SDS011;26430;48.818;9.244;2022-08-21T13:00:56;4.60;;;0.90;;
2446;SDS011;26430;48.818;9.244;2022-08-21T13:03:27;4.60;;;0.90;;
2446;SDS011;26430;48.818;9.244;2022-08-21T13:05:54;4.50;;;0.90;;
2446;SDS011;26430;48.818;9.244;2022-08-21T13:08:20;4.60;;;0.90;;
2446;SDS011;26430;48.818;9.244;2022-08-21T13:10:55;4.53;;;0.90;;
2446;SDS011;26430;48.818;9.244;2022-08-21T13:13:24;4.70;;;1.40;;
2446;SDS011;26430;48.818;9.244;2022-08-21T13:15:55;4.60;;;0.90;;
2446;SDS011;26430;48.818;9.244;2022-08-21T13:18:30;4.60;;;0.90;;
2446;SDS011;26430;48.818;9.244;2022-08-21T13:21:16;4.57;;;0.90;;
2446;SDS011;26430;48.818;9.244;2022-08-21T13:23:42;4.57;;;0.90;;
2446;SDS011;26430;48.818;9.244;2022-08-21T13:26:18;4.53;;;0.90;;
2446;SDS011;26430;48.818;9.244;2022-08-21T13:28:45;4.53;;;0.90;;
2446;SDS011;26430;48.818;9.244;2022-08-21T13:31:22;4.60;;;0.90;;
2446;SDS011;26430;48.818;9.244;2022-08-21T13:33:53;4.60;;;0.90;;
2446;SDS011;26430;48.818;9.244;2022-08-21T13:36:21;4.60;;;0.90;;
2446;SDS011;26430;48.818;9.244;2022-08-21T13:38:51;4.60;;;0.90;;
2446;SDS011;26430;48.818;9.244;2022-08-21T13:41:20;4.53;;;0.80;;
2446;SDS011;26430;48.818;9.244;2022-08-21T13:44:02;4.57;;;0.90;;
2446;SDS011;26430;48.818;9.244;2022-08-21T13:46:35;4.57;;;0.90;;
2446;SDS011;26430;48.818;9.244;2022-08-21T13:49:02;4.57;;;0.90;;
2446;SDS011;26430;48.818;9.244;2022-08-21T13:51:30;4.50;;;0.90;;
2446;SDS011;26430;48.818;9.244;2022-08-21T13:53:56;4.50;;;0.90;;
2446;SDS011;26430;48.818;9.244;2022-08-21T13:56:24;4.57;;;0.90;;
2446;SDS011;26430;48.818;9.244;2022-08-21T13:58:54;4.57;;;0.90;;
2446;SDS011;26430;48.818;9.244;2022-08-21T14:01:23;4.50;;;0.90;;
2446;SDS011;26430;48.818;9.244;2022-08-21T14:04:20;4.53;;;0.90;;
2446;SDS011;26430;48.818;9.244;2022-08-21T14:06:45;4.50;;;0.90;;
2446;SDS011;26430;48.818;9.244;2022-08-21T14:09:13;4.57;;;0.90;;
2446;SDS011;26430;48.818;9.244;2022-08-21T14:11:51;4.57;;;0.90;;
2446;SDS011;26430;48.818;9.244;2022-08-21T14:14:23;4.53;;;0.90;;
2446;SDS011;26430;48.818;9.244;2022-08-21T14:16:56;4.50;;;0.90;;
2446;SDS011;26430;48.818;9.244;2022-08-21T14:19:27;4.50;;;0.90;;
2446;SDS011;26430;48.818;9.244;2022-08-21T14:22:21;4.50;;;0.90;;
2446;SDS011;26430;48.818;9.244;2022-08-21T14:27:38;4.53;;;0.90;;
2446;SDS011;26430;48.818;9.244;2022-08-21T14:30:11;4.50;;;0.90;;
2446;SDS011;26430;48.818;9.244;2022-08-21T14:32:42;4.50;;;0.90;;
2446;SDS011;26430;48.818;9.244;2022-08-21T14:35:09;4.53;;;0.90;;
2446;SDS011;26430;48.818;9.244;2022-08-21T14:37:35;4.50;;;0.90;;
2446;SDS011;26430;48.818;9.244;2022-08-21T14:40:01;4.53;;;0.90;;
2446;SDS011;26430;48.818;9.244;2022-08-21T14:42:29;4.53;;;0.90;;
2446;SDS011;26430;48.818;9.244;2022-08-21T14:44:59;4.57;;;0.90;;
2446;SDS011;26430;48.818;9.244;2022-08-21T14:47:27;4.53;;;0.90;;
2446;SDS011;26430;48.818;9.244;2022-08-21T14:49:53;4.50;;;0.90;;
2446;SDS011;26430;48.818;9.244;2022-08-21T14:52:19;4.50;;;0.90;;
2446;SDS011;26430;48.818;9.244;2022-08-21T14:54:45;4.53;;;0.90;;
2446;SDS011;26430;48.818;9.244;2022-08-21T14:57:11;5.10;;;2.27;;
2446;SDS011;26430;48.818;9.244;2022-08-21T14:59:37;4.53;;;0.90;;
2446;SDS011;26430;48.818;9.244;2022-08-21T15:02:04;4.53;;;0.90;;
2446;SDS011;26430;48.818;9.244;2022-08-21T15:04:31;4.53;;;0.90;;
2446;SDS011;26430;48.818;9.244;2022-08-21T15:06:58;4.57;;;0.90;;
2446;SDS011;26430;48.818;9.244;2022-08-21T15:09:23;4.50;;;0.90;;
2446;SDS011;26430;48.818;9.244;2022-08-21T15:11:49;4.53;;;0.90;;
2446;SDS011;26430;48.818;9.244;2022-08-21T15:14:18;4.53;;;0.90;;
2446;SDS011;26430;48.818;9.244;2022-08-21T15:16:47;4.50;;;0.90;;
2446;SDS011;26430;48.818;9.244;2022-08-21T15:19:13;4.50;;;0.90;;
2446;SDS011;26430;48.818;9.244;2022-08-21T15:21:38;4.53;;;0.90;;
2446;SDS011;26430;48.818;9.244;2022-08-21T15:24:04;4.50;;;0.90;;
2446;SDS011;26430;48.818;9.244;2022-08-21T15:26:30;4.57;;;0.90;;
2446;SDS011;26430;48.818;9.244;2022-08-21T15:28:56;4.50;;;0.90;;
2446;SDS011;26430;48.818;9.244;2022-08-21T15:31:21;4.57;;;0.90;;
2446;SDS011;26430;48.818;9.244;2022-08-21T15:33:47;4.50;;;0.90;;
2446;SDS011;26430;48.818;9.244;2022-08-21T15:36:12;4.53;;;0.90;;
2446;SDS011;26430;48.818;9.244;2022-08-21T15:38:38;4.53;;;0.90;;
2446;SDS011;26430;48.818;9.244;2022-08-21T15:41:04;4.53;;;0.90;;
2446;SDS011;26430;48.818;9.244;2022-08-21T15:43:35;4.53;;;0.90;;
2446;SDS011;26430;48.818;9.244;2022-08-21T15:46:06;4.57;;;0.90;;
2446;SDS011;26430;48.818;9.244;2022-08-21T15:48:38;4.53;;;0.90;;
2446;SDS011;26430;48.818;9.244;2022-08-21T15:51:04;4.53;;;0.90;;
2446;SDS011;26430;48.818;9.244;2022-08-21T15:53:30;4.57;;;0.90;;
2446;SDS011;26430;48.818;9.244;2022-08-21T15:56:00;4.60;;;0.90;;
2446;SDS011;26430;48.818;9.244;2022-08-21T15:58:27;4.60;;;0.90;;
2446;SDS011;26430;48.818;9.244;2022-08-21T16:00:53;4.60;;;0.90;;
2446;SDS011;26430;48.818;9.244;2022-08-21T16:03:18;4.53;;;0.90;;
2446;SDS011;26430;48.818;9.244;2022-08-21T16:05:47;4.60;;;0.90;;
2446;SDS011;26430;48.818;9.244;2022-08-21T16:08:18;4.57;;;0.90;;
2446;SDS011;26430;48.818;9.244;2022-08-21T16:10:44;4.57;;;0.90;;
2446;SDS011;26430;48.818;9.244;2022-08-21T16:13:12;4.53;;;0.90;;
2446;SDS011;26430;48.818;9.244;2022-08-21T16:15:43;4.53;;;0.90;;
2446;SDS011;26430;48.818;9.244;2022-08-21T16:18:09;4.57;;;0.90;;
2446;SDS011;26430;48.818;9.244;2022-08-21T16:20:35;4.53;;;0.90;;
2446;SDS011;26430;48.818;9.244;2022-08-21T16:23:00;4.50;;;0.90;;
2446;SDS011;26430;48.818;9.244;2022-08-21T16:25:27;4.57;;;0.90;;
2446;SDS011;26430;48.818;9.244;2022-08-21T16:27:54;4.60;;;0.90;;
2446;SDS011;26430;48.818;9.244;2022-08-21T16:30:22;4.57;;;0.90;;
2446;SDS011;26430;48.818;9.244;2022-08-21T16:32:48;4.57;;;0.90;;
2446;SDS011;26430;48.818;9.244;2022-08-21T16:35:16;4.57;;;0.90;;
2446;SDS011;26430;48.818;9.244;2022-08-21T16:37:44;4.53;;;0.90;;
2446;SDS011;26430;48.818;9.244;2022-08-21T16:40:10;4.53;;;0.90;;
2446;SDS011;26430;48.818;9.244;2022-08-21T16:42:36;4.57;;;0.90;;
2446;SDS011;26430;48.818;9.244;2022-08-21T16:45:13;4.50;;;0.90;;
2446;SDS011;26430;48.818;9.244;2022-08-21T16:47:42;4.50;;;0.90;;
2446;SDS011;26430;48.818;9.244;2022-08-21T16:50:14;4.57;;;0.90;;
2446;SDS011;26430;48.818;9.244;2022-08-21T16:52:44;4.57;;;0.90;;
2446;SDS011;26430;48.818;9.244;2022-08-21T16:55:10;4.50;;;0.90;;
2446;SDS011;26430;48.818;9.244;2022-08-21T16:57:35;4.57;;;0.90;;
2446;SDS011;26430;48.818;9.244;2022-08-21T17:00:03;4.50;;;0.90;;
2446;SDS011;26430;48.818;9.244;2022-08-21T17:02:36;4.50;;;0.90;;